Blanchard, ND (58009)

11:08 AM CDT on July 28, 2014 (GMT -0500)
Argusville (KNDARGUS2) Elev 899 ft | 47.05 °N, 97.03 °W | Change Station

Current weather conditions updated 1 minute ago

Overcast
Overcast
68.0 °F
Feels Like 68.0 °F
N
0.0
Wind Variable Wind from North
Gusts 0.0 mph

Today is forecast to be Warmer than yesterday.

Today
High -- | Low -- °F
--% Chance of Precip.
Yesterday
High -- | Low -- °F
Precip. -- in
6:02 AM 9:07 PM
Waxing Crescent, 3% visible
Pressure 30.28 in
Visibility 10.0 miles
Clouds Overcast 6500 ft
Dew Point 57 °F
Humidity 68%
Rainfall 0.00 in
Snow Depth Not available.
UV 2 out of 12
Pollen 7.50 out of 12
Air Quality Not available.
Flu Activity Not available.
METAR KFAR 281553Z 34008KT 10SM OVC065 20/14 A3027 RMK AO2 SLP253 T02000139

More Conditions Fewer Conditions

Pressure 30.28 in
Visibility 10.0 miles
Clouds Overcast 6500 ft
Dew Point 57 °F
Humidity 68%
Rainfall 0.00 in
Snow Depth Not available.
UV 2 out of 12
Pollen 7.50 out of 12
Air Quality Not available.
Flu Activity Not available.
METAR KFAR 281553Z 34008KT 10SM OVC065 20/14 A3027 RMK AO2 SLP253 T02000139

More Conditions Fewer Conditions

10-Day Weather Forecast

Almanac

Astronomy

Jul. 28, 2014 Rise Set
Actual Time 6:02 AM CDT 9:07 PM CDT
Civil Twilight 5:25 AM CDT 9:44 PM CDT
Nautical Twilight 4:38 AM CDT 10:31 PM CDT
Astronomical Twilight 3:40 AM CDT 11:28 PM CDT
Moon 7:56 AM CDT 9:37 PM CDT
Length of Visible Light 16h 18m
Length of Day
15h 05m
Tomorrow will be 2m 32s shorter.
Waxing Crescent, 3% of the Moon is Illuminated
Today
Waxing Crescent
Aug 3
First Quarter
Aug 10
Full
Aug 17
Last Quarter
Aug 25
New

Today's Extremes

State Highs State Lows

Community

WunderPhotos

Upload Photos

1,738,400 photos uploaded!

WunderBlogs® & News

Nearby

Snow Depth

Station Depth Elevation
No new snow has been reported.

Earthquake Activity

City Distance Mag. Time & Date
No recent earthquake activity has been reported nearby.
Minimum magnitude displayed is 2.5.

Coastal Water Temperatures

Place Temperature
No Stations Reporting

Nearby Weather Stations

Station Location Temp. Dew Point Humidity Wind Precip. Elev Updated Type
Argusville, Argusville, ND 68.0 °F 57 °F 68% North  at  0.0 mph 0.00 in / hr 899 ft 11:07 AM CDT Normal

Show More Stations Show Fewer Stations